sensor_id;sensor_type;location;lat;lon;timestamp;pressure;altitude;pressure_sealevel;temperature;humidity
59106;BME280;44891;50.204;8.132;2023-02-28T00:00:22;99248.84;;;0.26;68.33
59106;BME280;44891;50.204;8.132;2023-02-28T00:04:24;99249.53;;;0.19;68.79
59106;BME280;44891;50.204;8.132;2023-02-28T00:08:26;99244.19;;;0.30;68.47
59106;BME280;44891;50.204;8.132;2023-02-28T00:12:30;99244.03;;;0.32;68.77
59106;BME280;44891;50.204;8.132;2023-02-28T00:16:32;99237.84;;;0.42;68.34
59106;BME280;44891;50.204;8.132;2023-02-28T00:20:34;99239.47;;;0.43;68.43
59106;BME280;44891;50.204;8.132;2023-02-28T00:24:35;99238.44;;;0.36;69.33
59106;BME280;44891;50.204;8.132;2023-02-28T00:28:39;99245.56;;;0.24;70.19
59106;BME280;44891;50.204;8.132;2023-02-28T00:32:40;99245.06;;;0.21;70.78
59106;BME280;44891;50.204;8.132;2023-02-28T00:36:43;99240.13;;;0.28;70.83
59106;BME280;44891;50.204;8.132;2023-02-28T00:40:46;99246.69;;;0.22;70.99
59106;BME280;44891;50.204;8.132;2023-02-28T00:44:49;99237.81;;;0.24;71.21
59106;BME280;44891;50.204;8.132;2023-02-28T00:48:51;99243.88;;;0.15;71.21
59106;BME280;44891;50.204;8.132;2023-02-28T00:52:53;99244.38;;;0.01;71.88
59106;BME280;44891;50.204;8.132;2023-02-28T00:56:55;99244.06;;;0.04;72.18
59106;BME280;44891;50.204;8.132;2023-02-28T01:00:58;99248.50;;;0.12;71.51
59106;BME280;44891;50.204;8.132;2023-02-28T01:05:00;99244.72;;;-0.12;72.46
59106;BME280;44891;50.204;8.132;2023-02-28T01:09:04;99240.75;;;-0.06;72.39
59106;BME280;44891;50.204;8.132;2023-02-28T01:13:06;99242.50;;;-0.07;72.57
59106;BME280;44891;50.204;8.132;2023-02-28T01:17:12;99239.25;;;-0.09;72.90
59106;BME280;44891;50.204;8.132;2023-02-28T01:21:15;99236.41;;;-0.06;72.55
59106;BME280;44891;50.204;8.132;2023-02-28T01:25:18;99240.44;;;-0.03;72.49
59106;BME280;44891;50.204;8.132;2023-02-28T01:29:20;99237.72;;;-0.02;73.13
59106;BME280;44891;50.204;8.132;2023-02-28T01:33:24;99242.50;;;-0.07;72.83
59106;BME280;44891;50.204;8.132;2023-02-28T01:37:27;99234.66;;;-0.15;73.34
59106;BME280;44891;50.204;8.132;2023-02-28T01:41:30;99237.41;;;-0.16;73.78
59106;BME280;44891;50.204;8.132;2023-02-28T01:45:32;99236.19;;;-0.22;74.14
59106;BME280;44891;50.204;8.132;2023-02-28T01:49:38;99239.19;;;-0.27;74.20
59106;BME280;44891;50.204;8.132;2023-02-28T01:53:41;99234.44;;;-0.49;75.45
59106;BME280;44891;50.204;8.132;2023-02-28T01:57:46;99234.75;;;-0.34;74.90
59106;BME280;44891;50.204;8.132;2023-02-28T02:01:50;99231.84;;;-0.49;75.60
59106;BME280;44891;50.204;8.132;2023-02-28T02:05:54;99228.31;;;-0.48;75.63
59106;BME280;44891;50.204;8.132;2023-02-28T02:09:59;99225.00;;;-0.40;75.21
59106;BME280;44891;50.204;8.132;2023-02-28T02:14:16;99211.25;;;-0.59;75.62
59106;BME280;44891;50.204;8.132;2023-02-28T02:18:25;99215.69;;;-0.78;76.48
59106;BME280;44891;50.204;8.132;2023-02-28T02:27:05;99210.31;;;-1.04;77.40
59106;BME280;44891;50.204;8.132;2023-02-28T02:31:18;99208.91;;;-0.89;76.80
59106;BME280;44891;50.204;8.132;2023-02-28T02:35:24;99203.66;;;-0.97;77.29
59106;BME280;44891;50.204;8.132;2023-02-28T02:39:29;99205.81;;;-1.02;77.62
59106;BME280;44891;50.204;8.132;2023-02-28T02:43:33;99207.47;;;-1.11;77.93
59106;BME280;44891;50.204;8.132;2023-02-28T02:47:37;99203.53;;;-1.15;77.65
59106;BME280;44891;50.204;8.132;2023-02-28T02:51:42;99210.91;;;-1.30;78.96
59106;BME280;44891;50.204;8.132;2023-02-28T02:55:46;99211.13;;;-1.14;77.61
59106;BME280;44891;50.204;8.132;2023-02-28T02:59:53;99218.75;;;-1.12;77.44
59106;BME280;44891;50.204;8.132;2023-02-28T03:03:56;99212.19;;;-1.06;76.98
59106;BME280;44891;50.204;8.132;2023-02-28T03:08:01;99211.44;;;-1.17;77.01
59106;BME280;44891;50.204;8.132;2023-02-28T03:12:06;99219.31;;;-1.18;77.17
59106;BME280;44891;50.204;8.132;2023-02-28T03:16:19;99207.22;;;-1.18;76.76
59106;BME280;44891;50.204;8.132;2023-02-28T03:20:28;99207.22;;;-1.18;76.90
59106;BME280;44891;50.204;8.132;2023-02-28T03:24:37;99211.56;;;-1.18;76.80
59106;BME280;44891;50.204;8.132;2023-02-28T03:28:46;99212.94;;;-1.24;77.03
59106;BME280;44891;50.204;8.132;2023-02-28T03:32:53;99211.56;;;-1.18;76.90
59106;BME280;44891;50.204;8.132;2023-02-28T03:36:57;99213.88;;;-1.25;76.81
59106;BME280;44891;50.204;8.132;2023-02-28T03:41:05;99209.94;;;-1.29;76.63
59106;BME280;44891;50.204;8.132;2023-02-28T03:45:09;99208.19;;;-1.48;77.67
59106;BME280;44891;50.204;8.132;2023-02-28T03:49:13;99214.16;;;-1.47;77.60
59106;BME280;44891;50.204;8.132;2023-02-28T03:53:18;99222.00;;;-1.39;77.26
59106;BME280;44891;50.204;8.132;2023-02-28T03:57:25;99217.84;;;-1.50;77.43
59106;BME280;44891;50.204;8.132;2023-02-28T04:01:30;99226.91;;;-1.36;76.77
59106;BME280;44891;50.204;8.132;2023-02-28T04:05:33;99223.50;;;-1.46;76.63
59106;BME280;44891;50.204;8.132;2023-02-28T04:09:46;99229.63;;;-1.47;77.38
59106;BME280;44891;50.204;8.132;2023-02-28T04:13:49;99220.81;;;-1.54;76.45
59106;BME280;44891;50.204;8.132;2023-02-28T04:17:51;99224.88;;;-1.61;77.83
59106;BME280;44891;50.204;8.132;2023-02-28T04:21:53;99223.66;;;-1.48;76.39
59106;BME280;44891;50.204;8.132;2023-02-28T04:25:55;99219.34;;;-1.57;75.60
59106;BME280;44891;50.204;8.132;2023-02-28T04:29:59;99226.25;;;-1.77;75.32
59106;BME280;44891;50.204;8.132;2023-02-28T04:34:01;99219.16;;;-2.04;76.72
59106;BME280;44891;50.204;8.132;2023-02-28T04:38:03;99226.28;;;-2.27;79.08
59106;BME280;44891;50.204;8.132;2023-02-28T04:42:04;99216.97;;;-2.08;78.93
59106;BME280;44891;50.204;8.132;2023-02-28T04:46:08;99226.59;;;-2.10;77.09
59106;BME280;44891;50.204;8.132;2023-02-28T04:50:11;99211.81;;;-2.08;77.15
59106;BME280;44891;50.204;8.132;2023-02-28T04:54:13;99214.44;;;-2.39;76.87
59106;BME280;44891;50.204;8.132;2023-02-28T04:58:16;99223.31;;;-2.62;77.73
59106;BME280;44891;50.204;8.132;2023-02-28T05:02:19;99216.13;;;-2.59;78.25
59106;BME280;44891;50.204;8.132;2023-02-28T05:06:22;99225.88;;;-2.62;79.09
59106;BME280;44891;50.204;8.132;2023-02-28T05:10:25;99222.00;;;-2.57;79.24
59106;BME280;44891;50.204;8.132;2023-02-28T05:14:27;99230.50;;;-2.56;79.79
59106;BME280;44891;50.204;8.132;2023-02-28T05:18:30;99221.34;;;-2.49;79.68
59106;BME280;44891;50.204;8.132;2023-02-28T05:22:32;99233.84;;;-2.35;79.72
59106;BME280;44891;50.204;8.132;2023-02-28T05:26:34;99240.75;;;-2.26;78.87
59106;BME280;44891;50.204;8.132;2023-02-28T05:30:36;99235.50;;;-2.14;77.03
59106;BME280;44891;50.204;8.132;2023-02-28T05:34:40;99238.03;;;-2.34;78.32
59106;BME280;44891;50.204;8.132;2023-02-28T05:38:42;99241.19;;;-2.61;76.70
59106;BME280;44891;50.204;8.132;2023-02-28T05:42:44;99236.09;;;-3.03;77.23
59106;BME280;44891;50.204;8.132;2023-02-28T05:46:45;99240.50;;;-3.14;78.50
59106;BME280;44891;50.204;8.132;2023-02-28T05:50:49;99240.28;;;-2.81;79.27
59106;BME280;44891;50.204;8.132;2023-02-28T05:54:50;99245.25;;;-2.58;77.65
59106;BME280;44891;50.204;8.132;2023-02-28T05:58:52;99241.44;;;-2.64;77.48
59106;BME280;44891;50.204;8.132;2023-02-28T06:02:54;99247.09;;;-2.70;78.05
59106;BME280;44891;50.204;8.132;2023-02-28T06:07:00;99246.09;;;-2.79;78.73
59106;BME280;44891;50.204;8.132;2023-02-28T06:11:02;99254.22;;;-2.83;78.22
59106;BME280;44891;50.204;8.132;2023-02-28T06:15:04;99263.84;;;-2.76;80.24
59106;BME280;44891;50.204;8.132;2023-02-28T06:19:06;99266.81;;;-2.50;79.41
59106;BME280;44891;50.204;8.132;2023-02-28T06:23:10;99269.72;;;-2.33;79.09
59106;BME280;44891;50.204;8.132;2023-02-28T06:27:11;99264.03;;;-2.37;79.91
59106;BME280;44891;50.204;8.132;2023-02-28T06:31:14;99258.66;;;-2.24;80.14
59106;BME280;44891;50.204;8.132;2023-02-28T06:35:16;99265.22;;;-2.01;79.27
59106;BME280;44891;50.204;8.132;2023-02-28T06:39:19;99264.53;;;-1.93;79.46
59106;BME280;44891;50.204;8.132;2023-02-28T06:43:21;99280.72;;;-1.72;78.43
59106;BME280;44891;50.204;8.132;2023-02-28T06:47:23;99270.81;;;-1.67;78.07
59106;BME280;44891;50.204;8.132;2023-02-28T06:51:25;99270.81;;;-1.67;77.97
59106;BME280;44891;50.204;8.132;2023-02-28T06:55:28;99278.72;;;-1.58;77.63
59106;BME280;44891;50.204;8.132;2023-02-28T06:59:30;99272.47;;;-1.46;76.82
59106;BME280;44891;50.204;8.132;2023-02-28T07:03:32;99274.38;;;-1.39;76.23
59106;BME280;44891;50.204;8.132;2023-02-28T07:07:34;99278.31;;;-1.25;75.67
59106;BME280;44891;50.204;8.132;2023-02-28T07:11:40;99222.31;;;-1.61;75.43
59106;BME280;44891;50.204;8.132;2023-02-28T07:15:43;99287.09;;;-1.08;74.54
59106;BME280;44891;50.204;8.132;2023-02-28T07:19:45;99287.78;;;-0.96;73.64
59106;BME280;44891;50.204;8.132;2023-02-28T07:23:47;99289.25;;;-0.94;72.87
59106;BME280;44891;50.204;8.132;2023-02-28T07:27:50;99286.56;;;-0.92;72.33
59106;BME280;44891;50.204;8.132;2023-02-28T07:31:52;99292.09;;;-0.87;71.44
59106;BME280;44891;50.204;8.132;2023-02-28T07:35:59;99285.88;;;-0.85;71.22
59106;BME280;44891;50.204;8.132;2023-02-28T07:40:01;99289.91;;;-0.72;70.19
59106;BME280;44891;50.204;8.132;2023-02-28T07:44:04;99286.50;;;-0.73;69.22
59106;BME280;44891;50.204;8.132;2023-02-28T07:48:06;99286.91;;;-0.68;68.99
59106;BME280;44891;50.204;8.132;2023-02-28T07:52:10;99293.66;;;-0.57;69.17
59106;BME280;44891;50.204;8.132;2023-02-28T07:56:12;99300.53;;;-0.38;68.19
59106;BME280;44891;50.204;8.132;2023-02-28T08:00:16;99213.22;;;-0.80;67.70
59106;BME280;44891;50.204;8.132;2023-02-28T08:04:18;99289.59;;;-0.22;68.00
59106;BME280;44891;50.204;8.132;2023-02-28T08:08:19;99293.53;;;-0.18;67.98
59106;BME280;44891;50.204;8.132;2023-02-28T08:12:21;99286.59;;;0.10;66.91
59106;BME280;44891;50.204;8.132;2023-02-28T08:16:25;99288.53;;;0.25;65.83
59106;BME280;44891;50.204;8.132;2023-02-28T08:20:27;99289.78;;;0.39;64.42
59106;BME280;44891;50.204;8.132;2023-02-28T08:24:29;99288.84;;;0.22;63.88
59106;BME280;44891;50.204;8.132;2023-02-28T08:28:31;99293.88;;;0.42;63.53
59106;BME280;44891;50.204;8.132;2023-02-28T08:32:34;99289.75;;;0.67;62.61
59106;BME280;44891;50.204;8.132;2023-02-28T08:36:36;99289.81;;;0.75;61.27
59106;BME280;44891;50.204;8.132;2023-02-28T08:40:38;99294.41;;;0.81;61.21
59106;BME280;44891;50.204;8.132;2023-02-28T08:44:41;99289.19;;;0.99;60.50
59106;BME280;44891;50.204;8.132;2023-02-28T08:48:44;99287.53;;;1.16;59.88
59106;BME280;44891;50.204;8.132;2023-02-28T08:52:46;99286.13;;;1.47;58.97
59106;BME280;44891;50.204;8.132;2023-02-28T08:56:48;99288.69;;;1.39;58.31
59106;BME280;44891;50.204;8.132;2023-02-28T09:00:50;99285.63;;;1.44;58.34
59106;BME280;44891;50.204;8.132;2023-02-28T09:04:53;99277.16;;;1.59;57.42
59106;BME280;44891;50.204;8.132;2023-02-28T09:08:56;99280.84;;;1.57;56.36
59106;BME280;44891;50.204;8.132;2023-02-28T09:12:58;99274.22;;;1.97;55.47
59106;BME280;44891;50.204;8.132;2023-02-28T09:17:00;99274.56;;;2.10;54.07
59106;BME280;44891;50.204;8.132;2023-02-28T09:21:04;99273.50;;;2.29;52.83
59106;BME280;44891;50.204;8.132;2023-02-28T09:25:06;99279.66;;;2.36;51.82
59106;BME280;44891;50.204;8.132;2023-02-28T09:29:08;99268.53;;;2.60;51.49
59106;BME280;44891;50.204;8.132;2023-02-28T09:33:11;99270.47;;;2.90;51.67
59106;BME280;44891;50.204;8.132;2023-02-28T09:37:15;99275.19;;;2.87;51.58
59106;BME280;44891;50.204;8.132;2023-02-28T09:41:17;99281.34;;;2.86;50.20
59106;BME280;44891;50.204;8.132;2023-02-28T09:45:22;99277.94;;;3.18;48.67
59106;BME280;44891;50.204;8.132;2023-02-28T09:49:25;99270.00;;;2.95;48.76
59106;BME280;44891;50.204;8.132;2023-02-28T09:53:32;99277.09;;;3.34;47.24
59106;BME280;44891;50.204;8.132;2023-02-28T09:57:37;99265.47;;;4.08;45.96
59106;BME280;44891;50.204;8.132;2023-02-28T10:01:41;99270.78;;;4.69;44.65
59106;BME280;44891;50.204;8.132;2023-02-28T10:05:48;99266.34;;;4.77;42.94
59106;BME280;44891;50.204;8.132;2023-02-28T10:09:53;99268.78;;;4.25;45.15
59106;BME280;44891;50.204;8.132;2023-02-28T10:13:58;99281.25;;;3.59;45.82
59106;BME280;44891;50.204;8.132;2023-02-28T10:18:03;99270.16;;;4.44;44.64
59106;BME280;44891;50.204;8.132;2023-02-28T10:22:08;99265.34;;;5.16;44.20
59106;BME280;44891;50.204;8.132;2023-02-28T10:26:16;99279.28;;;4.85;42.94
59106;BME280;44891;50.204;8.132;2023-02-28T10:30:18;99266.50;;;5.13;43.10
59106;BME280;44891;50.204;8.132;2023-02-28T10:34:20;99280.09;;;4.63;42.27
59106;BME280;44891;50.204;8.132;2023-02-28T10:38:23;99288.84;;;3.77;44.01
59106;BME280;44891;50.204;8.132;2023-02-28T10:42:27;99290.59;;;3.85;43.67
59106;BME280;44891;50.204;8.132;2023-02-28T10:46:29;99283.38;;;3.47;44.10
59106;BME280;44891;50.204;8.132;2023-02-28T10:50:35;99293.00;;;3.22;44.94
59106;BME280;44891;50.204;8.132;2023-02-28T10:54:38;99286.50;;;3.26;44.71
59106;BME280;44891;50.204;8.132;2023-02-28T10:58:50;99286.66;;;3.17;44.61
59106;BME280;44891;50.204;8.132;2023-02-28T11:02:52;99286.81;;;3.23;45.10
59106;BME280;44891;50.204;8.132;2023-02-28T11:06:56;99280.69;;;3.24;44.51
59106;BME280;44891;50.204;8.132;2023-02-28T11:10:59;99279.31;;;4.00;42.95
59106;BME280;44891;50.204;8.132;2023-02-28T11:15:04;99276.53;;;5.84;39.97
59106;BME280;44891;50.204;8.132;2023-02-28T11:19:07;99276.72;;;5.15;40.44
59106;BME280;44891;50.204;8.132;2023-02-28T11:23:18;99268.13;;;4.77;41.94
59106;BME280;44891;50.204;8.132;2023-02-28T11:27:25;99258.06;;;4.74;41.07
59106;BME280;44891;50.204;8.132;2023-02-28T11:31:28;99262.38;;;5.04;41.18
59106;BME280;44891;50.204;8.132;2023-02-28T11:35:31;99259.97;;;7.41;38.39
59106;BME280;44891;50.204;8.132;2023-02-28T11:39:35;99248.28;;;13.17;29.63
59106;BME280;44891;50.204;8.132;2023-02-28T11:43:52;99240.44;;;14.49;26.65
59106;BME280;44891;50.204;8.132;2023-02-28T11:48:01;99240.38;;;17.91;22.64
59106;BME280;44891;50.204;8.132;2023-02-28T11:52:06;99234.00;;;17.40;22.81
59106;BME280;44891;50.204;8.132;2023-02-28T11:56:14;99227.25;;;17.22;23.03
59106;BME280;44891;50.204;8.132;2023-02-28T12:00:25;99229.41;;;14.12;25.21
59106;BME280;44891;50.204;8.132;2023-02-28T12:04:33;99225.34;;;13.52;26.65
59106;BME280;44891;50.204;8.132;2023-02-28T12:08:42;99232.34;;;10.56;30.54
59106;BME280;44891;50.204;8.132;2023-02-28T12:12:47;99237.81;;;12.03;29.41
59106;BME280;44891;50.204;8.132;2023-02-28T12:16:53;99235.88;;;12.40;27.91
59106;BME280;44891;50.204;8.132;2023-02-28T12:21:01;99238.03;;;10.78;29.84
59106;BME280;44891;50.204;8.132;2023-02-28T12:29:29;99230.63;;;14.95;25.43
59106;BME280;44891;50.204;8.132;2023-02-28T12:33:33;99220.28;;;14.77;25.25
59106;BME280;44891;50.204;8.132;2023-02-28T12:37:38;99217.69;;;15.15;25.26
59106;BME280;44891;50.204;8.132;2023-02-28T12:41:44;99216.38;;;14.34;25.20
59106;BME280;44891;50.204;8.132;2023-02-28T12:45:48;99217.22;;;14.85;25.02
59106;BME280;44891;50.204;8.132;2023-02-28T12:49:52;99229.63;;;12.41;27.61
59106;BME280;44891;50.204;8.132;2023-02-28T12:54:00;99213.50;;;14.52;25.70
59106;BME280;44891;50.204;8.132;2023-02-28T12:58:08;99210.09;;;14.68;25.15
59106;BME280;44891;50.204;8.132;2023-02-28T13:02:20;99201.50;;;17.23;22.42
59106;BME280;44891;50.204;8.132;2023-02-28T13:06:35;99207.16;;;16.30;22.86
59106;BME280;44891;50.204;8.132;2023-02-28T13:10:43;99212.88;;;17.65;22.08
59106;BME280;44891;50.204;8.132;2023-02-28T13:14:45;99205.88;;;20.82;19.30
59106;BME280;44891;50.204;8.132;2023-02-28T13:18:48;99202.03;;;20.59;19.08
59106;BME280;44891;50.204;8.132;2023-02-28T13:22:50;99210.88;;;17.88;21.05
59106;BME280;44891;50.204;8.132;2023-02-28T13:31:15;99202.75;;;21.52;18.27
59106;BME280;44891;50.204;8.132;2023-02-28T13:39:45;99195.97;;;19.45;19.08
59106;BME280;44891;50.204;8.132;2023-02-28T13:44:00;99208.03;;;18.10;20.78
59106;BME280;44891;50.204;8.132;2023-02-28T13:48:05;99204.81;;;20.49;19.50
59106;BME280;44891;50.204;8.132;2023-02-28T13:52:17;99205.00;;;16.27;22.13
59106;BME280;44891;50.204;8.132;2023-02-28T13:56:23;99207.94;;;19.68;20.02
59106;BME280;44891;50.204;8.132;2023-02-28T14:00:32;99190.50;;;19.11;19.76
59106;BME280;44891;50.204;8.132;2023-02-28T14:04:47;99204.31;;;18.41;20.91
59106;BME280;44891;50.204;8.132;2023-02-28T14:08:52;99193.88;;;19.42;20.08
59106;BME280;44891;50.204;8.132;2023-02-28T14:13:00;99185.19;;;18.50;20.57
59106;BME280;44891;50.204;8.132;2023-02-28T14:17:02;99195.16;;;19.60;19.92
59106;BME280;44891;50.204;8.132;2023-02-28T14:21:11;99198.34;;;20.55;19.27
59106;BME280;44891;50.204;8.132;2023-02-28T14:25:16;99182.44;;;22.32;17.91
59106;BME280;44891;50.204;8.132;2023-02-28T14:29:26;99193.13;;;21.27;18.34
59106;BME280;44891;50.204;8.132;2023-02-28T14:33:35;99193.78;;;20.61;19.15
59106;BME280;44891;50.204;8.132;2023-02-28T14:37:43;99187.22;;;19.99;19.88
59106;BME280;44891;50.204;8.132;2023-02-28T14:41:45;99184.66;;;19.83;20.18
59106;BME280;44891;50.204;8.132;2023-02-28T14:45:49;99175.63;;;18.64;20.64
59106;BME280;44891;50.204;8.132;2023-02-28T14:49:52;99179.81;;;17.31;22.33
59106;BME280;44891;50.204;8.132;2023-02-28T14:53:57;99186.41;;;17.28;22.26
59106;BME280;44891;50.204;8.132;2023-02-28T14:58:01;99185.03;;;14.54;24.83
59106;BME280;44891;50.204;8.132;2023-02-28T15:02:17;99178.38;;;9.46;31.94
59106;BME280;44891;50.204;8.132;2023-02-28T15:06:19;99184.84;;;7.50;35.96
59106;BME280;44891;50.204;8.132;2023-02-28T15:10:25;99181.16;;;6.75;38.37
59106;BME280;44891;50.204;8.132;2023-02-28T15:14:27;99189.31;;;5.86;39.75
59106;BME280;44891;50.204;8.132;2023-02-28T15:18:31;99187.41;;;5.14;41.50
59106;BME280;44891;50.204;8.132;2023-02-28T15:22:35;99185.75;;;4.84;42.78
59106;BME280;44891;50.204;8.132;2023-02-28T15:26:40;99190.41;;;4.74;43.38
59106;BME280;44891;50.204;8.132;2023-02-28T15:30:50;99187.69;;;4.67;43.58
59106;BME280;44891;50.204;8.132;2023-02-28T15:34:53;99184.13;;;4.45;43.89
59106;BME280;44891;50.204;8.132;2023-02-28T15:38:55;99187.25;;;4.41;44.53
59106;BME280;44891;50.204;8.132;2023-02-28T15:42:59;99192.88;;;4.52;44.81
59106;BME280;44891;50.204;8.132;2023-02-28T15:47:02;99192.97;;;4.13;45.41
59106;BME280;44891;50.204;8.132;2023-02-28T15:51:06;99185.19;;;4.13;45.37
59106;BME280;44891;50.204;8.132;2023-02-28T15:55:09;99193.72;;;4.22;45.57
59106;BME280;44891;50.204;8.132;2023-02-28T15:59:15;99191.25;;;4.28;46.12
59106;BME280;44891;50.204;8.132;2023-02-28T16:03:25;99198.78;;;4.23;45.23
59106;BME280;44891;50.204;8.132;2023-02-28T16:07:27;99201.38;;;3.92;45.99
59106;BME280;44891;50.204;8.132;2023-02-28T16:11:29;99195.97;;;4.02;46.28
59106;BME280;44891;50.204;8.132;2023-02-28T16:15:35;99198.16;;;3.90;46.22
59106;BME280;44891;50.204;8.132;2023-02-28T16:19:42;99211.66;;;3.86;46.46
59106;BME280;44891;50.204;8.132;2023-02-28T16:23:43;99209.69;;;3.48;47.34
59106;BME280;44891;50.204;8.132;2023-02-28T16:27:46;99207.63;;;3.44;47.47
59106;BME280;44891;50.204;8.132;2023-02-28T16:31:51;99213.69;;;3.67;47.53
59106;BME280;44891;50.204;8.132;2023-02-28T16:35:53;99214.84;;;3.65;47.12
59106;BME280;44891;50.204;8.132;2023-02-28T16:39:55;99214.88;;;3.48;47.82
59106;BME280;44891;50.204;8.132;2023-02-28T16:43:58;99220.88;;;3.49;47.34
59106;BME280;44891;50.204;8.132;2023-02-28T16:48:02;99221.91;;;3.40;47.70
59106;BME280;44891;50.204;8.132;2023-02-28T16:52:04;99227.88;;;3.57;47.62
59106;BME280;44891;50.204;8.132;2023-02-28T16:56:11;99230.50;;;3.40;48.01
59106;BME280;44891;50.204;8.132;2023-02-28T17:00:16;99235.69;;;3.40;48.01
59106;BME280;44891;50.204;8.132;2023-02-28T17:04:19;99233.66;;;3.11;48.63
59106;BME280;44891;50.204;8.132;2023-02-28T17:08:21;99234.44;;;3.20;48.38
59106;BME280;44891;50.204;8.132;2023-02-28T17:12:23;99242.75;;;3.07;49.18
59106;BME280;44891;50.204;8.132;2023-02-28T17:16:26;99239.00;;;3.10;48.86
59106;BME280;44891;50.204;8.132;2023-02-28T17:20:30;99251.19;;;3.01;49.30
59106;BME280;44891;50.204;8.132;2023-02-28T17:24:32;99254.75;;;2.92;49.51
59106;BME280;44891;50.204;8.132;2023-02-28T17:28:34;99254.09;;;2.82;49.81
59106;BME280;44891;50.204;8.132;2023-02-28T17:32:36;99264.16;;;2.85;50.17
59106;BME280;44891;50.204;8.132;2023-02-28T17:36:39;99266.75;;;2.77;50.12
59106;BME280;44891;50.204;8.132;2023-02-28T17:40:41;99269.81;;;2.64;50.23
59106;BME280;44891;50.204;8.132;2023-02-28T17:44:42;99276.47;;;2.58;51.02
59106;BME280;44891;50.204;8.132;2023-02-28T17:48:44;99281.50;;;2.52;51.44
59106;BME280;44891;50.204;8.132;2023-02-28T17:52:47;99286.63;;;2.27;52.42
59106;BME280;44891;50.204;8.132;2023-02-28T17:56:50;99288.69;;;2.24;52.82
59106;BME280;44891;50.204;8.132;2023-02-28T18:00:52;99292.53;;;2.03;53.34
59106;BME280;44891;50.204;8.132;2023-02-28T18:04:55;99288.22;;;2.12;54.13
59106;BME280;44891;50.204;8.132;2023-02-28T18:08:59;99297.94;;;2.18;53.84
59106;BME280;44891;50.204;8.132;2023-02-28T18:13:01;99289.63;;;1.98;54.81
59106;BME280;44891;50.204;8.132;2023-02-28T18:17:04;99298.84;;;2.01;54.79
59106;BME280;44891;50.204;8.132;2023-02-28T18:21:06;99299.47;;;1.95;55.35
59106;BME280;44891;50.204;8.132;2023-02-28T18:25:10;99294.91;;;1.54;56.45
59106;BME280;44891;50.204;8.132;2023-02-28T18:29:15;99295.97;;;1.78;56.45
59106;BME280;44891;50.204;8.132;2023-02-28T18:33:18;99297.88;;;1.68;56.96
59106;BME280;44891;50.204;8.132;2023-02-28T18:37:20;99297.59;;;1.45;57.38
59106;BME280;44891;50.204;8.132;2023-02-28T18:41:24;99298.41;;;1.45;57.28
59106;BME280;44891;50.204;8.132;2023-02-28T18:45:26;99302.44;;;1.40;57.78
59106;BME280;44891;50.204;8.132;2023-02-28T18:49:30;99296.31;;;1.23;57.96
59106;BME280;44891;50.204;8.132;2023-02-28T18:53:33;99297.78;;;1.25;58.58
59106;BME280;44891;50.204;8.132;2023-02-28T18:57:37;99288.03;;;0.93;59.17
59106;BME280;44891;50.204;8.132;2023-02-28T19:01:38;99300.81;;;0.59;60.36
59106;BME280;44891;50.204;8.132;2023-02-28T19:05:40;99300.00;;;0.76;60.11
59106;BME280;44891;50.204;8.132;2023-02-28T19:09:42;99297.13;;;0.62;61.04
59106;BME280;44891;50.204;8.132;2023-02-28T19:13:46;99295.28;;;0.72;60.41
59106;BME280;44891;50.204;8.132;2023-02-28T19:17:48;99293.50;;;0.54;61.00
59106;BME280;44891;50.204;8.132;2023-02-28T19:21:50;99299.41;;;0.29;61.34
59106;BME280;44891;50.204;8.132;2023-02-28T19:25:52;99300.28;;;0.20;62.45
59106;BME280;44891;50.204;8.132;2023-02-28T19:29:56;99303.09;;;0.44;61.55
59106;BME280;44891;50.204;8.132;2023-02-28T19:33:59;99306.06;;;0.49;61.60
59106;BME280;44891;50.204;8.132;2023-02-28T19:38:01;99301.25;;;0.37;61.99
59106;BME280;44891;50.204;8.132;2023-02-28T19:42:03;99309.25;;;0.16;62.88
59106;BME280;44891;50.204;8.132;2023-02-28T19:46:06;99303.59;;;0.30;62.47
59106;BME280;44891;50.204;8.132;2023-02-28T19:50:09;99298.03;;;0.25;62.21
59106;BME280;44891;50.204;8.132;2023-02-28T19:54:11;99300.22;;;0.30;61.73
59106;BME280;44891;50.204;8.132;2023-02-28T19:58:13;99306.25;;;0.20;61.92
59106;BME280;44891;50.204;8.132;2023-02-28T20:02:17;99306.34;;;0.01;63.14
59106;BME280;44891;50.204;8.132;2023-02-28T20:06:19;99313.06;;;-0.16;63.89
59106;BME280;44891;50.204;8.132;2023-02-28T20:10:21;99314.03;;;-0.17;64.35
59106;BME280;44891;50.204;8.132;2023-02-28T20:14:23;99311.28;;;-0.06;63.95
59106;BME280;44891;50.204;8.132;2023-02-28T20:18:26;99303.47;;;0.04;62.99
59106;BME280;44891;50.204;8.132;2023-02-28T20:22:28;99298.97;;;0.06;62.96
59106;BME280;44891;50.204;8.132;2023-02-28T20:26:30;99296.28;;;0.25;62.27
59106;BME280;44891;50.204;8.132;2023-02-28T20:30:32;99298.59;;;0.29;61.83
59106;BME280;44891;50.204;8.132;2023-02-28T20:34:35;99294.28;;;0.19;62.86
59106;BME280;44891;50.204;8.132;2023-02-28T20:38:37;99301.09;;;0.20;62.97
59106;BME280;44891;50.204;8.132;2023-02-28T20:42:39;99294.72;;;0.15;63.32
59106;BME280;44891;50.204;8.132;2023-02-28T20:46:41;99292.72;;;0.09;63.67
59106;BME280;44891;50.204;8.132;2023-02-28T20:50:48;99293.88;;;-0.04;63.77
59106;BME280;44891;50.204;8.132;2023-02-28T20:54:49;99291.19;;;-0.12;64.37
59106;BME280;44891;50.204;8.132;2023-02-28T20:58:52;99296.81;;;-0.26;65.24
59106;BME280;44891;50.204;8.132;2023-02-28T21:02:57;99291.34;;;-0.60;66.44
59106;BME280;44891;50.204;8.132;2023-02-28T21:07:00;99288.59;;;-0.39;66.18
59106;BME280;44891;50.204;8.132;2023-02-28T21:11:05;99294.28;;;-0.36;65.86
59106;BME280;44891;50.204;8.132;2023-02-28T21:15:08;99286.84;;;-0.48;66.56
59106;BME280;44891;50.204;8.132;2023-02-28T21:19:10;99284.00;;;-0.45;66.47
59106;BME280;44891;50.204;8.132;2023-02-28T21:23:13;99283.88;;;-0.53;67.38
59106;BME280;44891;50.204;8.132;2023-02-28T21:27:15;99280.47;;;-0.44;66.56
59106;BME280;44891;50.204;8.132;2023-02-28T21:31:17;99285.25;;;-0.59;67.37
59106;BME280;44891;50.204;8.132;2023-02-28T21:35:20;99279.47;;;-0.80;67.88
59106;BME280;44891;50.204;8.132;2023-02-28T21:39:23;99279.75;;;-0.93;68.29
59106;BME280;44891;50.204;8.132;2023-02-28T21:43:28;99285.16;;;-0.77;68.08
59106;BME280;44891;50.204;8.132;2023-02-28T21:47:30;99282.28;;;-0.74;67.95
59106;BME280;44891;50.204;8.132;2023-02-28T21:51:31;99276.78;;;-1.08;69.30
59106;BME280;44891;50.204;8.132;2023-02-28T21:55:35;99264.53;;;-0.87;68.72